Time;durP1;ratioP1;P1;durP2;ratioP2;P2;SDS_P1;SDS_P2;PMS_P1;PMS_P2;Temp;Humidity;BMP_temperature;BMP_pressure;BME280_temperature;BME280_humidity;BME280_pressure;Samples;Min_cycle;Max_cycle;Signal;HPM_P1;HPM_P2
2022/11/08 00:01:30;;;;;;;13.57;5.40;;;14.60;99.90;;;13.88;90.92;100563.00;5113505;28;20039;-71
2022/11/08 00:03:11;;;;;;;13.95;6.03;;;14.50;99.90;;;14.65;91.84;100688.94;5113163;28;20127;-71
2022/11/08 00:13:57;;;;;;;15.27;6.35;;;14.50;99.90;;;14.71;91.52;100691.44;5113005;28;20118;-69
2022/11/08 00:16:27;;;;;;;18.98;6.20;;;14.50;99.90;;;14.73;91.31;100681.63;5112878;28;20035;-69
2022/11/08 00:18:55;;;;;;;13.87;5.80;;;14.50;99.90;;;14.71;91.18;100667.47;5112944;28;20047;-69
2022/11/08 00:21:23;;;;;;;16.02;6.60;;;14.50;99.90;;;14.74;91.11;100674.53;5113014;28;20138;-69
2022/11/08 00:23:52;;;;;;;14.68;5.88;;;14.50;99.90;;;14.67;91.20;100663.16;5112948;28;20035;-70
2022/11/08 00:26:20;;;;;;;19.00;5.63;;;14.50;99.90;;;14.74;90.88;100662.09;5094669;28;20054;-69
2022/11/08 00:28:48;;;;;;;14.02;6.03;;;14.60;99.90;;;14.68;90.92;100687.97;5112765;28;20052;-70
2022/11/08 00:31:17;;;;;;;12.52;5.50;;;14.50;99.90;;;14.73;90.92;100673.63;5116312;28;20047;-69
2022/11/08 00:33:46;;;;;;;20.63;6.13;;;14.50;99.90;;;14.73;91.00;100668.31;5116723;28;20069;-69
2022/11/08 00:36:15;;;;;;;10.05;5.90;;;14.50;99.90;;;14.63;91.14;100671.25;5116945;28;20511;-70
2022/11/08 00:38:43;;;;;;;10.90;5.82;;;14.50;99.90;;;14.72;91.07;100657.72;5116797;28;20040;-69
2022/11/08 00:41:12;;;;;;;12.70;5.88;;;14.50;99.90;;;14.64;91.22;100663.22;5116651;28;20090;-69
2022/11/08 00:43:40;;;;;;;11.88;4.95;;;14.40;99.90;;;14.62;91.08;100682.78;5098365;28;20062;-69
2022/11/08 00:46:09;;;;;;;15.02;6.38;;;14.40;99.90;;;14.48;91.07;100673.34;5116593;28;20076;-70
2022/11/08 00:48:37;;;;;;;16.17;5.88;;;14.40;99.90;;;14.62;91.16;100648.19;5116504;28;20046;-69
2022/11/08 00:51:10;;;;;;;13.52;5.72;;;14.40;99.90;;;14.61;91.08;100657.09;5116481;28;20043;-70
2022/11/08 00:53:39;;;;;;;13.77;5.80;;;14.40;99.90;;;14.65;90.79;100654.34;5116443;28;20051;-70
2022/11/08 00:56:11;;;;;;;15.02;5.88;;;14.40;99.90;;;14.57;90.74;100651.00;5116485;28;20052;-69
2022/11/08 00:58:40;;;;;;;13.13;5.68;;;14.40;99.90;;;14.57;90.73;100661.63;5116367;28;20054;-70
2022/11/08 01:01:10;;;;;;;14.25;5.57;;;14.40;99.90;;;14.55;91.01;100646.59;5116243;28;20051;-70
2022/11/08 01:03:39;;;;;;;13.93;5.60;;;14.30;99.90;;;14.47;90.78;100633.47;5116245;28;20100;-70
2022/11/08 01:06:11;;;;;;;12.15;5.60;;;14.30;99.90;;;14.52;91.06;100634.22;5116178;28;20587;-70
2022/11/08 01:08:39;;;;;;;12.63;5.55;;;14.30;99.90;;;14.46;90.92;100637.03;5116107;28;20139;-70
2022/11/08 01:11:12;;;;;;;15.48;5.32;;;14.30;99.90;;;14.59;90.66;100619.88;5116119;28;20047;-69
2022/11/08 01:13:41;;;;;;;12.45;5.78;;;14.40;99.90;;;14.51;90.54;100656.44;5116071;28;20047;-69
2022/11/08 01:16:12;;;;;;;13.02;5.47;;;14.40;99.90;;;14.49;90.66;100607.72;5116071;28;20044;-70
2022/11/08 01:18:41;;;;;;;19.55;6.38;;;14.30;99.90;;;14.52;90.29;100623.59;5115998;28;20053;-69
2022/11/08 01:21:12;;;;;;;14.07;5.03;;;14.30;99.90;;;14.54;90.57;100619.09;5115804;28;20089;-69
2022/11/08 01:23:42;;;;;;;12.63;5.65;;;14.30;99.90;;;14.53;90.18;100616.47;5115779;28;20369;-69
2022/11/08 01:26:14;;;;;;;15.02;5.78;;;14.30;99.90;;;14.49;90.23;100594.41;5115803;28;20055;-70
2022/11/08 01:28:43;;;;;;;17.73;5.93;;;14.30;99.90;;;14.53;89.64;100595.19;5115821;28;20043;-70
2022/11/08 01:31:14;;;;;;;16.80;6.22;;;14.30;99.90;;;14.54;89.49;100615.59;5097421;28;20551;-70
2022/11/08 01:33:42;;;;;;;12.35;5.20;;;14.40;99.90;;;14.49;89.31;100597.06;5115405;28;20512;-69
2022/11/08 01:36:22;;;;;;;17.65;5.68;;;14.40;99.90;;;14.47;89.57;100582.91;5115721;28;20492;-70
2022/11/08 01:38:52;;;;;;;12.38;5.10;;;14.40;99.90;;;14.37;89.36;100578.72;5115568;28;20064;-70
2022/11/08 01:41:23;;;;;;;13.20;5.40;;;14.30;99.90;;;14.49;89.29;100565.13;5114456;28;20455;-70
2022/11/08 01:43:52;;;;;;;16.23;6.13;;;14.30;99.90;;;14.48;88.85;100566.00;5115544;28;20043;-69
2022/11/08 01:46:47;;;;;;;15.40;6.03;;;14.30;99.90;;;14.50;88.59;100574.00;5115415;28;20050;-70
2022/11/08 01:49:37;;;;;;;17.30;5.65;;;14.30;99.90;;;14.53;88.23;100573.91;5115355;28;20059;-70
2022/11/08 01:52:21;;;;;;;14.18;5.60;;;14.40;99.90;;;14.45;88.44;100563.44;5115483;28;20507;-70
2022/11/08 01:54:58;;;;;;;11.73;5.88;;;14.30;99.90;;;14.37;88.18;100579.59;5115374;28;20546;-70
2022/11/08 01:57:32;;;;;;;11.30;5.40;;;14.30;99.90;;;14.20;88.63;100548.97;5115273;28;20053;-70
2022/11/08 02:00:06;;;;;;;13.95;5.78;;;14.20;99.90;;;14.28;88.77;100563.00;5115364;28;20058;-71
2022/11/08 02:02:39;;;;;;;10.32;5.32;;;14.20;99.90;;;14.39;88.60;100571.56;5115006;28;20040;-70
2022/11/08 02:05:24;;;;;;;11.68;5.80;;;14.20;99.90;;;14.34;88.45;100570.84;5096856;28;20048;-70
2022/11/08 02:08:02;;;;;;;16.70;6.35;;;14.20;99.90;;;14.39;88.45;100563.59;5115207;28;20040;-70
2022/11/08 02:10:36;;;;;;;13.98;6.22;;;14.20;99.90;;;14.33;88.60;100553.97;5115077;28;20127;-70
2022/11/08 02:13:07;;;;;;;14.02;5.95;;;14.20;99.90;;;14.34;88.26;100549.53;5114907;28;20043;-70
2022/11/08 02:15:41;;;;;;;10.75;5.32;;;14.20;99.90;;;14.41;88.22;100548.47;5115059;28;20100;-70
2022/11/08 02:18:10;;;;;;;12.98;5.13;;;14.20;99.90;;;14.33;88.06;100558.44;5114807;28;20036;-70
2022/11/08 02:20:40;;;;;;;11.23;4.85;;;14.20;99.90;;;14.34;88.10;100538.91;5115144;28;20512;-70
2022/11/08 02:23:18;;;;;;;7.43;5.00;;;14.20;99.90;;;14.39;88.26;100534.31;5114974;28;20138;-70
2022/11/08 02:25:48;;;;;;;12.45;5.20;;;14.20;99.90;;;14.39;87.76;100544.97;5114574;28;20043;-69
2022/11/08 02:28:16;;;;;;;12.68;5.28;;;14.30;99.90;;;14.48;87.27;100527.91;5114666;28;20044;-70
2022/11/08 02:30:45;;;;;;;10.40;5.10;;;14.30;99.90;;;14.48;86.83;100526.97;5114481;28;20044;-71
2022/11/08 02:33:18;;;;;;;8.73;4.60;;;14.30;99.90;;;14.42;86.66;100532.44;5114638;28;20467;-70
2022/11/08 02:35:52;;;;;;;13.07;5.03;;;14.30;99.90;;;14.25;87.14;100541.72;5114528;28;20035;-70
2022/11/08 02:38:22;;;;;;;12.07;5.68;;;14.20;99.90;;;14.08;87.57;100506.69;5096117;28;20057;-70
2022/11/08 02:40:54;;;;;;;14.07;5.32;;;14.10;99.90;;;13.92;88.52;100515.94;5114289;28;20039;-70
2022/11/08 02:43:24;;;;;;;9.93;5.85;;;13.90;99.90;;;13.96;88.70;100514.97;5114314;28;20047;-70
2022/11/08 02:45:53;;;;;;;10.82;4.85;;;13.80;99.90;;;13.97;89.00;100501.66;5114231;28;20051;-71
2022/11/08 02:48:21;;;;;;;17.15;5.78;;;13.80;99.90;;;13.90;89.21;100513.34;5114127;28;20129;-69
2022/11/08 02:50:49;;;;;;;16.60;5.97;;;13.80;99.90;;;13.84;90.15;100500.19;5114141;28;20036;-72
2022/11/08 02:53:19;;;;;;;10.55;5.43;;;13.70;99.90;;;13.86;90.07;100503.69;5113909;28;20401;-71
2022/11/08 02:55:47;;;;;;;12.15;5.50;;;13.70;99.90;;;13.88;90.00;100495.69;5114110;28;20039;-71
2022/11/08 02:58:16;;;;;;;14.43;5.60;;;13.70;99.90;;;13.86;90.08;100497.50;5114380;28;20075;-71
2022/11/08 03:00:45;;;;;;;12.38;4.93;;;13.70;99.90;;;13.81;90.27;100492.28;5114148;28;20047;-72
2022/11/08 03:03:13;;;;;;;13.43;6.10;;;13.70;99.90;;;13.75;90.56;100481.81;5113813;28;20035;-71
2022/11/08 03:05:42;;;;;;;10.52;6.15;;;13.60;99.90;;;13.63;91.63;100475.91;5113879;28;20382;-71
2022/11/08 03:08:10;;;;;;;17.02;6.18;;;13.50;99.90;;;13.65;91.64;100463.44;5113974;28;20043;-72
2022/11/08 03:10:39;;;;;;;15.43;6.13;;;13.50;99.90;;;13.49;91.80;100463.78;5113839;28;20399;-71
2022/11/08 03:13:07;;;;;;;14.15;6.03;;;13.40;99.90;;;13.39;92.78;100464.91;5113878;28;20047;-71
2022/11/08 03:15:37;;;;;;;13.38;5.88;;;13.20;99.90;;;13.24;93.69;100462.59;5113968;28;20115;-71
2022/11/08 03:18:05;;;;;;;11.98;6.10;;;13.10;99.90;;;13.08;94.26;100447.91;5113637;28;20040;-71
2022/11/08 03:20:34;;;;;;;14.25;6.40;;;13.00;99.90;;;12.92;94.98;100432.28;5113631;28;20123;-71
2022/11/08 03:23:05;;;;;;;11.90;5.70;;;12.90;99.90;;;12.91;95.80;100430.56;5113477;28;20054;-71
2022/11/08 03:25:34;;;;;;;13.13;6.32;;;12.80;99.90;;;12.80;96.99;100422.81;5113545;28;20133;-71
2022/11/08 03:28:03;;;;;;;13.00;5.72;;;12.60;99.90;;;12.66;97.52;100419.53;5113457;28;20039;-71
2022/11/08 03:30:32;;;;;;;13.55;5.85;;;12.50;99.90;;;12.69;98.26;100411.53;5113452;28;20047;-72
2022/11/08 03:33:02;;;;;;;15.75;6.22;;;12.50;99.90;;;12.43;98.32;100374.03;5113819;28;20399;-71
2022/11/08 03:35:31;;;;;;;17.58;6.25;;;12.40;99.90;;;12.51;98.81;100399.50;5095397;28;20061;-69
2022/11/08 03:37:59;;;;;;;12.02;6.30;;;12.40;99.90;;;12.46;99.31;100413.78;5113531;28;20058;-69
2022/11/08 03:40:28;;;;;;;16.13;6.45;;;12.30;99.90;;;12.46;99.84;100400.50;5113503;28;20040;-68
2022/11/08 03:42:57;;;;;;;12.07;5.57;;;12.30;99.90;;;12.43;99.29;100403.22;5113202;28;20036;-69
2022/11/08 03:45:25;;;;;;;9.75;5.18;;;12.30;99.90;;;12.31;99.51;100390.22;5113463;28;20050;-68
2022/11/08 03:47:53;;;;;;;12.18;6.13;;;12.20;99.90;;;12.35;100.00;100397.22;5113610;28;20066;-70
2022/11/08 03:50:23;;;;;;;13.40;5.68;;;12.20;99.90;;;12.36;100.00;100394.53;5113771;28;20043;-69
2022/11/08 03:52:54;;;;;;;15.48;5.85;;;12.20;99.90;;;12.17;100.00;100381.63;5113998;28;20283;-69
2022/11/08 03:55:23;;;;;;;;;;;12.20;99.90;;;12.33;100.00;100388.41;5113583;28;20415;-69
2022/11/08 03:57:52;;;;;;;11.85;5.75;;;12.20;99.90;;;12.36;100.00;100390.97;5113329;28;20448;-69
2022/11/08 04:00:23;;;;;;;12.70;6.05;;;12.20;99.90;;;12.29;99.96;100360.19;5113492;28;20073;-69
2022/11/08 04:02:54;;;;;;;12.63;5.50;;;12.30;99.90;;;12.40;100.00;100390.91;5113571;28;20052;-69
2022/11/08 04:05:24;;;;;;;11.25;5.53;;;12.30;99.90;;;12.47;100.00;100392.53;5097082;28;20048;-68
2022/11/08 04:07:53;;;;;;;10.30;5.88;;;12.30;99.90;;;12.50;99.82;100391.59;5117345;28;20127;-69
2022/11/08 04:10:21;;;;;;;9.25;5.47;;;12.40;99.90;;;12.57;99.01;100390.56;5117548;28;20131;-69
2022/11/08 04:15:35;;;;;;;11.70;6.35;;;12.40;99.90;;;12.54;98.53;100383.53;5117544;28;20130;-70
2022/11/08 04:23:37;;;;;;;11.95;5.32;;;12.50;99.90;;;12.60;97.63;100371.94;5117035;28;20047;-70
2022/11/08 04:26:10;;;;;;;10.43;5.97;;;12.50;99.90;;;12.61;97.64;100374.56;5117008;28;20043;-70
2022/11/08 04:28:40;;;;;;;12.70;5.93;;;12.50;99.90;;;12.62;97.30;100349.75;5098868;28;20051;-69
2022/11/08 04:31:12;;;;;;;14.63;5.97;;;12.50;99.90;;;12.64;97.07;100347.06;5116904;28;20626;-70
2022/11/08 04:33:40;;;;;;;9.38;5.07;;;12.50;99.90;;;12.56;96.90;100339.28;5116765;28;20063;-70
2022/11/08 04:36:13;;;;;;;10.57;5.47;;;12.50;99.90;;;12.56;96.42;100306.59;5098669;28;20374;-69
2022/11/08 04:38:41;;;;;;;12.20;6.03;;;12.60;99.90;;;12.67;96.09;100341.72;5116982;28;20048;-70
2022/11/08 04:41:12;;;;;;;9.02;5.15;;;12.60;99.90;;;12.74;96.13;100343.31;5116885;28;20122;-69
2022/11/08 04:43:40;;;;;;;9.05;5.57;;;12.60;99.90;;;12.81;95.34;100336.97;5116623;28;20043;-69
2022/11/08 04:46:12;;;;;;;16.50;5.47;;;12.70;99.90;;;12.76;95.35;100330.00;5098491;28;20058;-70
2022/11/08 04:48:40;;;;;;;11.25;5.80;;;12.60;99.90;;;12.77;95.26;100334.41;5116606;28;20386;-70
2022/11/08 04:51:14;;;;;;;8.95;4.82;;;12.70;99.90;;;12.76;94.80;100330.88;5116507;28;20131;-70
2022/11/08 04:53:43;;;;;;;9.90;4.95;;;12.70;99.90;;;12.82;94.32;100336.06;5116407;28;20075;-70
2022/11/08 04:56:14;;;;;;;13.07;5.28;;;12.70;99.90;;;12.89;94.13;100332.34;5098491;28;20044;-69
2022/11/08 04:58:44;;;;;;;10.93;5.32;;;12.70;99.90;;;12.80;93.81;100327.25;5117014;28;20447;-70
2022/11/08 05:01:15;;;;;;;10.43;5.35;;;12.70;99.90;;;12.92;93.75;100316.38;5098192;28;20415;-69
2022/11/08 05:03:45;;;;;;;8.57;5.05;;;12.80;99.90;;;12.92;93.24;100334.94;5116198;28;20404;-70
2022/11/08 05:06:18;;;;;;;8.85;5.07;;;12.80;99.90;;;12.82;93.06;100290.94;5116230;28;20043;-69
2022/11/08 05:08:46;;;;;;;10.05;5.25;;;12.80;99.90;;;12.92;93.09;100328.75;5116212;28;20395;-70
2022/11/08 05:11:17;;;;;;;7.63;5.47;;;12.80;99.90;;;12.88;92.84;100301.41;5116298;28;20077;-70
2022/11/08 05:13:46;;;;;;;9.93;5.13;;;12.70;99.90;;;12.71;92.83;100287.66;5116147;28;20035;-70
2022/11/08 05:16:16;;;;;;;12.50;6.15;;;12.70;99.90;;;12.88;92.94;100300.53;5116507;28;20043;-69
2022/11/08 05:18:45;;;;;;;9.10;5.15;;;12.70;99.90;;;12.90;92.67;100307.56;5116068;28;20039;-69
2022/11/08 05:24:07;;;;;;;9.60;5.25;;;12.80;99.90;;;12.83;92.52;100319.25;5116364;28;20115;-70
2022/11/08 05:26:37;;;;;;;9.90;5.30;;;12.70;99.90;;;12.85;92.43;100304.16;5097581;28;20044;-70
2022/11/08 05:29:06;;;;;;;12.18;5.75;;;12.70;99.90;;;12.92;92.08;100295.13;5115831;28;20032;-70
2022/11/08 05:31:34;;;;;;;10.60;5.20;;;12.80;99.90;;;12.13;92.10;100159.91;5115968;28;20057;-72
2022/11/08 05:34:03;;;;;;;10.63;5.10;;;12.70;99.90;;;12.74;91.81;100269.00;5115755;28;20063;-69
2022/11/08 05:36:33;;;;;;;12.25;5.53;;;12.70;99.90;;;12.07;91.33;100152.09;5115836;28;20074;-69
2022/11/08 05:39:01;;;;;;;9.43;5.22;;;12.80;99.90;;;12.77;91.48;100279.56;5115685;28;20043;-70
2022/11/08 05:41:30;;;;;;;10.00;5.15;;;12.80;99.90;;;12.85;91.11;100293.53;5115551;28;20044;-69
2022/11/08 05:43:58;;;;;;;9.80;5.10;;;12.70;99.90;;;12.82;91.28;100264.41;5115203;28;20049;-69
2022/11/08 05:46:26;;;;;;;7.93;4.78;;;12.80;99.90;;;12.93;90.78;100296.03;5115882;28;20119;-70
2022/11/08 05:48:55;;;;;;;7.45;4.78;;;12.70;99.90;;;12.93;90.60;100264.16;5115795;28;20047;-69
2022/11/08 05:51:23;;;;;;;9.40;4.65;;;12.80;99.90;;;12.38;90.38;100175.25;5115364;28;20048;-69
2022/11/08 05:53:53;;;;;;;9.32;4.72;;;12.80;99.90;;;12.83;90.06;100298.00;5115604;28;20043;-70
2022/11/08 05:56:21;;;;;;;6.95;4.82;;;12.80;99.90;;;12.90;89.93;100275.72;5115202;28;20042;-70
2022/11/08 05:58:49;;;;;;;6.90;4.45;;;12.80;99.90;;;12.73;89.92;100251.34;5115688;28;20051;-70
2022/11/08 06:01:20;;;;;;;9.57;4.68;;;12.70;99.90;;;12.90;89.64;100264.22;5097098;28;20047;-70
2022/11/08 06:03:48;;;;;;;9.20;5.07;;;12.70;99.90;;;12.81;89.44;100251.19;5115108;28;20055;-71
2022/11/08 06:06:20;;;;;;;8.43;4.40;;;12.80;99.90;;;12.95;89.26;100279.13;5114950;28;20036;-70
2022/11/08 06:08:50;;;;;;;7.55;5.15;;;12.80;99.90;;;12.89;89.26;100300.50;5115298;28;20047;-70
2022/11/08 06:11:26;;;;;;;6.43;4.78;;;12.80;99.90;;;12.91;89.22;100280.09;5115559;28;20044;-69
2022/11/08 06:13:54;;;;;;;8.82;5.07;;;12.80;99.90;;;12.94;89.06;100261.47;5114910;28;20050;-69
2022/11/08 06:16:25;;;;;;;10.40;5.13;;;12.80;99.90;;;12.90;88.98;100277.50;5114921;28;20425;-70
2022/11/08 06:18:53;;;;;;;9.05;5.35;;;12.80;99.90;;;12.89;88.79;100276.59;5114764;28;20048;-69
2022/11/08 06:21:22;;;;;;;8.05;5.05;;;12.80;99.90;;;12.94;88.19;100256.16;5114692;28;20051;-70
2022/11/08 06:23:53;;;;;;;8.10;4.57;;;12.80;99.90;;;12.98;87.93;100246.34;5114896;28;20039;-70
2022/11/08 06:26:23;;;;;;;7.65;5.00;;;12.80;99.90;;;13.01;87.75;100272.78;5114613;28;20146;-70
2022/11/08 06:28:52;;;;;;;7.32;4.88;;;12.90;99.90;;;13.09;87.27;100258.47;5114484;28;20040;-69
2022/11/08 06:31:20;;;;;;;6.63;4.88;;;13.00;99.90;;;13.08;86.66;100243.47;5114529;28;20044;-70
2022/11/08 06:33:49;;;;;;;10.75;4.93;;;12.90;99.90;;;13.07;86.43;100252.31;5095937;28;20134;-69
2022/11/08 06:36:17;;;;;;;9.43;5.00;;;12.90;99.90;;;13.14;85.93;100253.06;5114480;28;20504;-69
2022/11/08 06:38:45;;;;;;;8.80;5.28;;;13.00;99.90;;;13.19;85.04;100269.75;5114386;28;20050;-70
2022/11/08 06:41:19;;;;;;;8.52;5.05;;;13.10;99.90;;;13.10;85.22;100235.44;5114445;28;20039;-70
2022/11/08 06:43:49;;;;;;;9.55;5.18;;;13.10;99.90;;;13.22;85.00;100253.75;5114489;28;20392;-69
2022/11/08 06:46:17;;;;;;;6.13;5.25;;;13.10;99.90;;;13.16;84.83;100246.78;5095997;28;20044;-71
2022/11/08 06:48:46;;;;;;;10.10;4.65;;;13.10;99.90;;;13.33;84.54;100255.22;5114124;28;20051;-70
2022/11/08 06:51:14;;;;;;;10.73;4.90;;;13.10;99.90;;;13.32;84.35;100242.84;5114306;28;20058;-70
2022/11/08 06:53:42;;;;;;;7.40;4.53;;;13.20;99.90;;;13.24;83.92;100246.63;5113971;28;20051;-70
2022/11/08 06:56:11;;;;;;;8.48;4.90;;;13.10;99.90;;;13.28;84.16;100254.44;5113965;28;20039;-69
2022/11/08 06:58:40;;;;;;;8.15;5.00;;;13.20;99.90;;;13.35;83.60;100247.22;5113917;28;20044;-70
2022/11/08 07:01:10;;;;;;;6.53;4.60;;;13.20;99.90;;;13.34;83.19;100250.75;5113546;28;20093;-71
2022/11/08 07:03:39;;;;;;;6.30;4.68;;;13.20;99.90;;;13.39;82.80;100243.56;5112818;28;20051;-70
2022/11/08 07:06:08;;;;;;;7.00;4.78;;;13.30;99.90;;;13.54;82.67;100259.97;5113944;28;20043;-70
2022/11/08 07:08:37;;;;;;;8.98;4.90;;;13.40;99.90;;;13.52;81.95;100271.53;5113927;28;20043;-71
2022/11/08 07:11:05;;;;;;;7.85;5.13;;;13.40;99.90;;;13.65;81.87;100246.38;5113718;28;20070;-71
2022/11/08 07:13:34;;;;;;;9.35;5.82;;;13.50;99.90;;;13.62;81.80;100250.91;5113569;28;20054;-69
2022/11/08 07:16:03;;;;;;;7.78;4.88;;;13.50;99.90;;;13.64;81.55;100244.66;5114158;28;20051;-70
2022/11/08 07:18:33;;;;;;;8.38;5.00;;;13.50;99.90;;;13.06;81.50;100144.41;5113757;28;20043;-70
2022/11/08 07:21:02;;;;;;;7.33;5.07;;;13.50;99.90;;;13.63;81.19;100266.81;5113620;28;20222;-71
2022/11/08 07:23:31;;;;;;;9.50;5.22;;;13.50;99.90;;;13.69;81.15;100263.13;5113590;28;20142;-69
2022/11/08 07:26:04;;;;;;;6.68;5.30;;;13.60;99.90;;;13.71;81.02;100255.97;5113364;28;20032;-69
2022/11/08 07:28:32;;;;;;;9.25;5.10;;;13.60;99.90;;;13.73;81.29;100259.47;5113376;28;20110;-70
2022/11/08 07:31:03;;;;;;;9.70;5.38;;;13.60;99.90;;;13.68;80.87;100294.16;5113294;28;20040;-70
2022/11/08 07:33:33;;;;;;;9.35;4.93;;;13.60;99.90;;;13.76;80.75;100254.97;5113463;28;20036;-70
2022/11/08 07:36:02;;;;;;;7.97;5.20;;;13.60;99.90;;;13.94;80.61;100270.38;5095085;28;20059;-69
2022/11/08 07:38:30;;;;;;;7.32;5.20;;;13.70;99.90;;;13.75;80.06;100231.94;5113004;28;20043;-70
2022/11/08 07:41:00;;;;;;;7.15;5.07;;;13.80;99.90;;;13.83;80.19;100243.25;5094692;28;20130;-70
2022/11/08 07:43:29;;;;;;;6.03;5.10;;;13.70;99.90;;;13.89;80.17;100223.59;5113349;28;20050;-71
2022/11/08 07:46:10;;;;;;;10.18;4.90;;;13.70;99.90;;;13.88;79.94;100262.56;5095168;28;20109;-70
2022/11/08 07:48:39;;;;;;;6.80;4.97;;;13.80;99.90;;;13.92;80.23;100266.91;5113312;28;20039;-70
2022/11/08 07:51:08;;;;;;;6.82;4.95;;;13.80;99.90;;;13.83;79.81;100229.94;5113117;28;20050;-69
2022/11/08 07:53:36;;;;;;;6.53;4.70;;;13.80;99.90;;;13.87;79.88;100246.69;5113091;28;20032;-70
2022/11/08 07:56:05;;;;;;;7.30;5.57;;;13.80;99.90;;;13.82;80.33;100270.72;5113141;28;20039;-70
2022/11/08 07:58:33;;;;;;;11.88;5.22;;;13.70;99.90;;;13.76;80.75;100243.44;5113185;28;20048;-70
2022/11/08 08:01:03;;;;;;;7.57;5.70;;;13.70;99.90;;;13.82;80.65;100253.91;5113574;28;20058;-69
2022/11/08 08:03:31;;;;;;;10.10;4.77;;;13.70;99.90;;;13.81;80.72;100265.44;5094708;28;20047;-69
2022/11/08 08:06:01;;;;;;;7.47;5.28;;;13.70;99.90;;;13.91;80.14;100286.44;5113344;28;20040;-70
2022/11/08 08:08:30;;;;;;;7.28;4.95;;;13.80;99.90;;;13.93;79.29;100279.28;5112870;28;20043;-69
2022/11/08 08:11:00;;;;;;;7.00;5.05;;;13.80;99.90;;;13.67;79.23;100219.75;5112916;28;20404;-70
2022/11/08 08:13:29;;;;;;;7.27;4.90;;;13.90;99.90;;;13.98;79.42;100261.41;5112936;28;20059;-70
2022/11/08 08:16:00;;;;;;;12.07;5.68;;;13.90;99.90;;;13.97;78.46;100242.84;5112965;28;20297;-70
2022/11/08 08:18:29;;;;;;;9.07;6.05;;;13.90;99.90;;;14.28;78.63;100254.41;5113011;28;20101;-70
2022/11/08 08:20:57;;;;;;;7.63;5.30;;;14.10;99.90;;;14.26;77.82;100259.72;5113034;28;20040;-70
2022/11/08 08:23:27;;;;;;;7.80;5.25;;;14.10;99.90;;;14.24;77.28;100255.38;5112950;28;20067;-71
2022/11/08 08:25:56;;;;;;;8.95;5.95;;;14.10;99.90;;;14.25;77.08;100255.31;5094803;28;20554;-70
2022/11/08 08:28:25;;;;;;;7.45;5.57;;;14.10;99.90;;;14.28;77.41;100251.72;5112825;28;20397;-70
2022/11/08 08:30:53;;;;;;;10.50;5.10;;;14.10;99.90;;;14.36;77.16;100289.63;5112688;28;20047;-70
2022/11/08 08:33:21;;;;;;;7.85;4.50;;;14.20;99.90;;;14.40;76.83;100259.34;5113037;28;20229;-70
2022/11/08 08:35:59;;;;;;;6.78;4.55;;;14.30;99.90;;;14.43;76.26;100270.78;5094466;28;20051;-71
2022/11/08 08:38:30;;;;;;;6.68;4.47;;;14.30;99.90;;;14.42;76.49;100228.22;5112876;28;20048;-70
2022/11/08 08:40:58;;;;;;;7.07;4.53;;;14.20;99.90;;;14.28;76.66;100210.03;5112641;28;20050;-70
2022/11/08 08:43:27;;;;;;;8.55;4.68;;;14.20;99.90;;;14.35;76.95;100254.16;5112591;28;20439;-70
2022/11/08 08:45:59;;;;;;;6.07;4.47;;;14.20;99.90;;;14.38;76.76;100224.78;5112606;28;20795;-70
2022/11/08 08:48:27;;;;;;;8.18;4.75;;;14.30;99.90;;;14.44;76.57;100245.00;5112644;28;20048;-70
2022/11/08 08:50:55;;;;;;;10.00;4.97;;;14.30;99.90;;;14.55;76.99;100253.56;5113941;28;20516;-71
2022/11/08 08:53:24;;;;;;;8.32;4.70;;;14.40;99.90;;;14.60;76.74;100264.94;5098072;28;20043;-70
2022/11/08 08:55:53;;;;;;;8.02;4.60;;;14.40;99.90;;;14.66;76.38;100246.13;5116296;28;20471;-70
2022/11/08 08:58:22;;;;;;;9.32;5.13;;;14.50;99.90;;;14.60;76.22;100218.81;5097989;28;20146;-70
2022/11/08 09:00:51;;;;;;;6.53;4.90;;;14.50;99.90;;;14.77;75.52;100257.28;5116318;28;20040;-70
2022/11/08 09:03:39;;;;;;;10.88;4.50;;;14.60;99.90;;;14.80;75.16;100274.97;5116128;28;20124;-70
2022/11/08 09:06:08;;;;;;;7.45;4.53;;;14.60;99.90;;;14.83;75.35;100273.06;5116030;28;20039;-70
2022/11/08 09:08:36;;;;;;;6.35;4.47;;;14.60;99.90;;;14.77;74.81;100249.31;5116632;28;20043;-70
2022/11/08 09:11:06;;;;;;;9.35;5.18;;;14.60;99.90;;;14.69;75.00;100234.50;5116190;28;20040;-71
2022/11/08 09:13:34;;;;;;;6.47;4.75;;;14.60;99.90;;;14.78;74.96;100261.72;5116137;28;20054;-71
2022/11/08 09:16:03;;;;;;;10.13;4.97;;;14.60;99.90;;;14.86;75.42;100258.81;5097766;28;20043;-70
2022/11/08 09:18:32;;;;;;;6.20;4.50;;;14.70;99.90;;;14.85;74.99;100260.59;5116301;28;20382;-70
2022/11/08 09:21:03;;;;;;;7.82;4.45;;;14.60;99.90;;;14.84;74.84;100277.50;5115903;28;20048;-70
2022/11/08 09:23:31;;;;;;;12.02;4.72;;;14.60;99.90;;;14.73;75.09;100274.28;5116072;28;20462;-71
2022/11/08 09:26:02;;;;;;;9.50;4.90;;;14.60;99.90;;;14.79;75.16;100267.91;5115839;28;20031;-70
2022/11/08 09:28:34;;;;;;;8.35;4.68;;;14.60;99.90;;;14.83;75.35;100265.09;5115819;28;20401;-70
2022/11/08 09:31:05;;;;;;;6.18;5.05;;;14.60;99.90;;;14.65;74.94;100225.75;5115715;28;20035;-70
2022/11/08 09:33:33;;;;;;;7.45;5.28;;;14.60;99.90;;;14.75;75.48;100237.00;5115649;28;20143;-70
2022/11/08 09:36:02;;;;;;;7.85;4.68;;;14.60;99.90;;;14.69;75.91;100214.06;5115802;28;20404;-70
2022/11/08 09:38:31;;;;;;;8.80;4.70;;;14.60;99.90;;;14.84;75.69;100244.69;5115672;28;20039;-70
2022/11/08 09:41:17;;;;;;;7.13;4.95;;;14.70;99.90;;;14.76;75.79;100234.28;5097260;28;20075;-71
2022/11/08 09:44:09;;;;;;;14.02;4.57;;;14.60;99.90;;;14.76;75.60;100236.06;5115503;28;20492;-70
2022/11/08 09:46:43;;;;;;;9.82;5.15;;;14.60;99.90;;;14.81;75.95;100229.66;5115336;28;20062;-71
2022/11/08 09:49:20;;;;;;;11.07;5.80;;;14.60;99.90;;;14.72;75.57;100253.91;5115506;28;20047;-70
2022/11/08 09:51:49;;;;;;;8.80;4.95;;;14.60;99.90;;;14.76;76.20;100226.28;5097078;28;20052;-70
2022/11/08 09:54:23;;;;;;;7.32;4.70;;;14.50;99.90;;;14.75;76.21;100261.78;5115504;28;20052;-71
2022/11/08 09:56:54;;;;;;;7.47;4.80;;;14.60;99.90;;;14.63;75.92;100264.84;5115794;28;20072;-70
2022/11/08 09:59:36;;;;;;;8.10;5.13;;;14.50;99.90;;;14.12;76.22;100141.34;5115243;28;20112;-71
2022/11/08 10:02:17;;;;;;;8.48;5.05;;;14.50;99.90;;;14.72;76.52;100229.97;5114412;28;20050;-70
2022/11/08 10:04:55;;;;;;;8.30;4.60;;;14.60;99.90;;;14.77;76.33;100270.59;5115147;28;20768;-71
2022/11/08 10:07:33;;;;;;;6.55;5.07;;;14.60;99.90;;;14.15;75.81;100142.13;5115028;28;20113;-70
2022/11/08 10:10:25;;;;;;;12.50;5.00;;;14.60;99.90;;;14.86;76.05;100238.38;5115034;28;20048;-69
2022/11/08 10:13:05;;;;;;;8.52;5.22;;;14.60;99.90;;;14.84;75.81;100261.53;5096573;28;20059;-70
2022/11/08 10:15:42;;;;;;;7.47;4.60;;;14.70;99.90;;;14.89;76.03;100246.25;5115208;28;20058;-70
2022/11/08 10:18:51;;;;;;;9.02;5.00;;;14.70;99.90;;;14.92;76.13;100263.94;5096879;28;20060;-71
2022/11/08 10:21:48;;;;;;;12.27;5.10;;;14.70;99.90;;;14.96;76.27;100261.13;5115013;28;20044;-70
2022/11/08 10:24:23;;;;;;;9.25;4.95;;;14.80;99.90;;;14.91;76.24;100223.13;5114674;28;20040;-70
2022/11/08 10:26:53;;;;;;;9.00;5.53;;;14.80;99.90;;;15.06;76.21;100240.41;5114773;28;20123;-70
2022/11/08 10:29:26;;;;;;;6.68;4.72;;;14.80;99.90;;;15.04;76.10;100243.09;5114647;28;20400;-71
2022/11/08 10:32:03;;;;;;;9.15;4.88;;;14.90;99.90;;;15.11;76.31;100249.09;5096266;28;20078;-71
2022/11/08 10:34:41;;;;;;;8.98;5.07;;;14.90;99.90;;;15.11;76.40;100239.34;5114625;28;20066;-70
2022/11/08 10:37:15;;;;;;;8.00;5.13;;;14.90;99.90;;;15.08;76.12;100270.50;5114508;28;20459;-70
2022/11/08 10:39:51;;;;;;;10.13;5.05;;;14.90;99.90;;;15.15;76.27;100275.63;5114998;28;20089;-71
2022/11/08 10:42:29;;;;;;;9.00;4.75;;;14.90;99.90;;;15.20;75.91;100264.78;5114610;28;20047;-71
2022/11/08 10:44:58;;;;;;;12.18;4.63;;;15.00;99.90;;;15.26;76.10;100248.59;5114394;28;20431;-71